createdAt,value
2018-04-25T00:01:39.910Z,13.60
2018-04-25T00:04:08.885Z,13.60
2018-04-25T00:06:37.006Z,13.50
2018-04-25T00:09:05.239Z,13.60
2018-04-25T00:11:34.142Z,13.70
2018-04-25T00:14:02.275Z,13.60
2018-04-25T00:16:30.403Z,13.60
2018-04-25T00:18:58.539Z,13.70
2018-04-25T00:21:27.419Z,13.70
2018-04-25T00:23:56.328Z,13.70
2018-04-25T00:26:24.492Z,13.60
2018-04-25T00:28:53.409Z,13.60
2018-04-25T00:31:21.554Z,13.60
2018-04-25T00:33:50.445Z,13.50
2018-04-25T00:36:19.363Z,13.50
2018-04-25T00:38:47.486Z,13.40
2018-04-25T00:41:15.682Z,13.40
2018-04-25T00:43:44.582Z,13.40
2018-04-25T00:46:13.564Z,13.30
2018-04-25T00:48:42.550Z,13.30
2018-04-25T00:51:11.452Z,13.30
2018-04-25T00:53:39.609Z,13.20
2018-04-25T00:56:08.507Z,13.20
2018-04-25T00:58:36.640Z,13.10
2018-04-25T01:01:04.845Z,13.20
2018-04-25T01:03:33.740Z,13.10
2018-04-25T01:06:03.555Z,13.10
2018-04-25T01:08:32.528Z,13.10
2018-04-25T01:11:00.723Z,13.10
2018-04-25T01:13:29.704Z,13.10
2018-04-25T01:15:58.588Z,13.10
2018-04-25T01:18:27.480Z,13.10
2018-04-25T01:20:57.225Z,13.10
2018-04-25T01:23:25.360Z,13.10
2018-04-25T01:26:01.320Z,13.00
2018-04-25T01:28:30.299Z,13.00
2018-04-25T01:31:00.606Z,13.00
2018-04-25T01:33:41.432Z,13.00
2018-04-25T01:36:13.159Z,13.10
2018-04-25T01:38:51.252Z,13.00
2018-04-25T01:41:20.752Z,13.00
2018-04-25T01:43:50.571Z,13.00
2018-04-25T01:46:20.305Z,12.90
2018-04-25T01:52:03.540Z,12.90
2018-04-25T01:54:43.504Z,12.80
2018-04-25T01:57:23.471Z,12.80
2018-04-25T02:00:03.371Z,12.80
2018-04-25T02:02:31.842Z,12.80
2018-04-25T02:05:00.734Z,12.70
2018-04-25T02:07:29.630Z,12.70
2018-04-25T02:09:57.753Z,12.70
2018-04-25T02:12:25.887Z,12.70
2018-04-25T02:14:54.016Z,12.70
2018-04-25T02:17:22.206Z,12.70
2018-04-25T02:19:51.107Z,12.70
2018-04-25T02:22:20.091Z,12.70
2018-04-25T02:24:48.976Z,12.70
2018-04-25T02:27:17.868Z,12.70
2018-04-25T02:29:46.763Z,12.70
2018-04-25T02:32:15.656Z,12.70
2018-04-25T02:34:44.639Z,12.70
2018-04-25T02:37:13.607Z,12.60
2018-04-25T02:39:41.820Z,12.60
2018-04-25T02:42:10.703Z,12.60
2018-04-25T02:44:38.846Z,12.60
2018-04-25T02:47:06.964Z,12.60
2018-04-25T02:49:35.103Z,12.60
2018-04-25T02:52:03.258Z,12.60
2018-04-25T02:54:31.455Z,12.60
2018-04-25T02:57:00.366Z,12.50
2018-04-25T02:59:28.507Z,12.50
2018-04-25T03:01:57.447Z,12.40
2018-04-25T03:04:25.611Z,12.40
2018-04-25T03:06:53.758Z,12.50
2018-04-25T03:09:22.663Z,12.40
2018-04-25T03:11:51.818Z,12.30
2018-04-25T03:14:19.952Z,12.40
2018-04-25T03:16:48.108Z,12.30
2018-04-25T03:19:16.246Z,12.40
2018-04-25T03:21:45.241Z,12.40
2018-04-25T03:24:14.143Z,12.40
2018-04-25T03:26:42.255Z,12.50
2018-04-25T03:29:10.394Z,12.50
2018-04-25T03:31:38.516Z,12.50
2018-04-25T03:34:06.723Z,12.50
2018-04-25T03:36:35.591Z,12.50
2018-04-25T03:39:04.488Z,12.50
2018-04-25T03:41:33.388Z,12.50
2018-04-25T03:44:02.309Z,12.50
2018-04-25T03:46:30.454Z,12.50
2018-04-25T03:48:59.357Z,12.50
2018-04-25T03:51:27.511Z,12.50
2018-04-25T03:53:56.397Z,12.50
2018-04-25T03:56:25.296Z,12.50
2018-04-25T03:58:53.432Z,12.50
2018-04-25T04:01:21.636Z,12.50
2018-04-25T04:03:50.524Z,12.50
2018-04-25T04:06:19.047Z,12.50
2018-04-25T04:08:47.179Z,12.50
2018-04-25T04:11:15.313Z,12.40
2018-04-25T04:13:43.519Z,12.50
2018-04-25T04:16:11.670Z,12.40
2018-04-25T04:18:39.787Z,12.40
2018-04-25T04:21:07.931Z,12.40
2018-04-25T04:23:36.053Z,12.40
2018-04-25T04:26:04.182Z,12.40
2018-04-25T04:28:33.168Z,12.40
2018-04-25T04:31:02.055Z,12.40
2018-04-25T04:33:31.039Z,12.50
2018-04-25T04:35:59.925Z,12.50
2018-04-25T04:38:28.814Z,12.50
2018-04-25T04:40:57.826Z,12.60
2018-04-25T04:43:25.951Z,12.60
2018-04-25T04:45:54.093Z,12.60
2018-04-25T04:48:22.232Z,12.70
2018-04-25T04:50:51.216Z,12.90
2018-04-25T04:53:20.167Z,12.90
2018-04-25T04:55:48.308Z,12.90
2018-04-25T04:58:16.442Z,13.00
2018-04-25T05:00:44.577Z,13.10
2018-04-25T05:03:12.719Z,13.20
2018-04-25T05:05:40.848Z,13.20
2018-04-25T05:08:08.979Z,13.30
2018-04-25T05:10:37.254Z,13.40
2018-04-25T05:13:05.504Z,13.40
2018-04-25T05:15:33.575Z,13.50
2018-04-25T05:18:02.559Z,13.60
2018-04-25T05:20:30.708Z,13.60
2018-04-25T05:22:58.827Z,13.70
2018-04-25T05:25:26.959Z,13.70
2018-04-25T05:27:55.855Z,13.90
2018-04-25T05:30:24.838Z,13.90
2018-04-25T05:32:53.810Z,13.90
2018-04-25T05:35:21.924Z,13.90
2018-04-25T05:37:50.064Z,14.00
2018-04-25T05:40:18.971Z,14.20
2018-04-25T05:42:47.964Z,14.40
2018-04-25T05:45:16.867Z,14.50
2018-04-25T05:47:45.010Z,14.50
2018-04-25T05:50:13.919Z,14.90
2018-04-25T05:52:42.071Z,14.90
2018-04-25T05:55:10.195Z,15.30
2018-04-25T05:57:38.336Z,15.70
2018-04-25T06:00:06.461Z,15.90
2018-04-25T06:02:34.580Z,15.90
2018-04-25T06:05:02.717Z,15.90
2018-04-25T06:07:30.930Z,15.70
2018-04-25T06:09:59.085Z,15.70
2018-04-25T06:12:27.259Z,15.70
2018-04-25T06:14:56.164Z,15.70
2018-04-25T06:17:24.291Z,15.70
2018-04-25T06:19:52.406Z,15.80
2018-04-25T06:22:20.559Z,15.90
2018-04-25T06:24:49.454Z,16.00
2018-04-25T06:27:18.447Z,16.10
2018-04-25T06:29:46.695Z,16.10
2018-04-25T06:32:14.886Z,16.20
2018-04-25T06:34:43.878Z,16.40
2018-04-25T06:37:12.767Z,16.50
2018-04-25T06:39:41.679Z,16.50
2018-04-25T06:42:09.799Z,16.50
2018-04-25T06:44:38.041Z,16.60
2018-04-25T06:47:06.141Z,16.70
2018-04-25T06:49:35.788Z,16.80
2018-04-25T06:52:04.687Z,17.00
2018-04-25T06:54:32.816Z,16.90
2018-04-25T06:57:00.930Z,17.00
2018-04-25T06:59:29.091Z,17.10
2018-04-25T07:01:57.996Z,17.20
2018-04-25T07:04:26.127Z,17.20
2018-04-25T07:06:55.023Z,17.40
2018-04-25T07:09:23.912Z,17.50
2018-04-25T07:11:52.812Z,17.60
2018-04-25T07:14:21.799Z,17.70
2018-04-25T07:16:50.791Z,17.80
2018-04-25T07:19:19.797Z,17.80
2018-04-25T07:21:48.682Z,17.90
2018-04-25T07:24:16.834Z,17.90
2018-04-25T07:26:44.964Z,18.00
2018-04-25T07:29:13.115Z,18.00
2018-04-25T07:31:41.408Z,18.10
2018-04-25T07:34:09.545Z,18.10
2018-04-25T07:36:38.441Z,18.20
2018-04-25T07:39:06.568Z,18.20
2018-04-25T07:41:34.726Z,18.30
2018-04-25T07:44:02.830Z,18.40
2018-04-25T07:46:31.060Z,18.50
2018-04-25T07:48:59.161Z,18.50
2018-04-25T07:51:27.275Z,18.50
2018-04-25T07:53:55.955Z,18.50
2018-04-25T07:56:24.850Z,18.80
2018-04-25T07:58:53.039Z,18.70
2018-04-25T08:01:21.195Z,18.90
2018-04-25T08:03:49.330Z,19.00
2018-04-25T08:06:17.625Z,19.10
2018-04-25T08:08:46.512Z,19.40
2018-04-25T08:11:15.422Z,19.60
2018-04-25T08:13:55.535Z,19.50
2018-04-25T08:16:35.605Z,19.60
2018-04-25T08:19:26.851Z,19.80
2018-04-25T08:21:54.943Z,19.90
2018-04-25T08:24:23.195Z,20.00
2018-04-25T08:26:51.328Z,20.20
2018-04-25T08:29:19.467Z,20.30
2018-04-25T08:31:47.588Z,20.40
2018-04-25T08:34:16.494Z,20.50
2018-04-25T08:36:45.645Z,20.60
2018-04-25T08:39:13.855Z,20.60
2018-04-25T08:41:42.032Z,20.70
2018-04-25T08:44:11.048Z,21.00
2018-04-25T08:46:39.283Z,21.00
2018-04-25T08:49:08.258Z,21.20
2018-04-25T08:51:37.145Z,21.30
2018-04-25T08:54:05.270Z,21.20
2018-04-25T08:56:33.464Z,21.20
2018-04-25T08:59:02.299Z,21.30
2018-04-25T09:01:30.458Z,21.20
2018-04-25T09:03:59.338Z,21.50
2018-04-25T09:06:28.250Z,21.60
2018-04-25T09:08:56.389Z,21.60
2018-04-25T09:11:24.511Z,21.60
2018-04-25T09:13:52.627Z,21.70
2018-04-25T09:16:20.817Z,21.70
2018-04-25T09:18:49.703Z,21.70
2018-04-25T09:21:17.816Z,21.70
2018-04-25T09:23:46.043Z,21.70
2018-04-25T09:26:14.379Z,21.70
2018-04-25T09:28:43.319Z,21.90
2018-04-25T09:31:12.216Z,21.90
2018-04-25T09:33:41.095Z,21.90
2018-04-25T09:36:09.997Z,21.90
2018-04-25T09:38:38.899Z,21.80
2018-04-25T09:41:07.018Z,21.80
2018-04-25T09:43:36.649Z,21.90
2018-04-25T09:46:05.555Z,22.10
2018-04-25T09:48:34.437Z,22.20
2018-04-25T09:51:04.249Z,22.30
2018-04-25T09:53:33.163Z,22.40
2018-04-25T09:56:01.279Z,22.30
2018-04-25T09:58:29.440Z,22.50
2018-04-25T10:00:57.589Z,22.60
2018-04-25T10:03:25.747Z,22.60
2018-04-25T10:05:53.893Z,22.80
2018-04-25T10:08:22.023Z,22.80
2018-04-25T10:10:50.174Z,22.50
2018-04-25T10:13:18.304Z,22.50
2018-04-25T10:15:47.211Z,22.10
2018-04-25T10:18:16.110Z,22.20
2018-04-25T10:20:44.239Z,22.20
2018-04-25T10:23:13.933Z,22.60
2018-04-25T10:25:42.111Z,22.60
2018-04-25T10:28:10.210Z,22.80
2018-04-25T10:30:39.088Z,22.80
2018-04-25T10:33:07.222Z,22.70
2018-04-25T10:35:35.452Z,22.50
2018-04-25T10:38:04.380Z,22.40
2018-04-25T10:40:32.660Z,22.40
2018-04-25T10:43:00.748Z,22.40
2018-04-25T10:45:28.969Z,22.60
2018-04-25T10:47:57.087Z,22.60
2018-04-25T10:50:25.224Z,22.70
2018-04-25T10:52:53.396Z,22.70
2018-04-25T10:55:21.527Z,22.70
2018-04-25T10:57:49.646Z,22.70
2018-04-25T11:00:17.800Z,22.70
2018-04-25T11:02:45.960Z,22.60
2018-04-25T11:05:14.839Z,22.40
2018-04-25T11:07:43.825Z,22.50
2018-04-25T11:10:12.734Z,22.50
2018-04-25T11:12:40.879Z,22.50
2018-04-25T11:15:09.773Z,22.60
2018-04-25T11:17:37.971Z,22.80
2018-04-25T11:20:06.859Z,22.80
2018-04-25T11:22:35.744Z,22.90
2018-04-25T11:25:04.708Z,23.00
2018-04-25T11:27:32.827Z,23.00
2018-04-25T11:30:00.983Z,23.00
2018-04-25T11:32:29.871Z,22.80
2018-04-25T11:34:58.740Z,22.80
2018-04-25T11:37:27.636Z,22.80
2018-04-25T11:39:56.512Z,22.80
2018-04-25T11:42:24.682Z,22.80
2018-04-25T11:44:52.797Z,22.90
2018-04-25T11:47:21.045Z,23.00
2018-04-25T11:49:49.091Z,23.20
2018-04-25T11:52:17.230Z,23.30
2018-04-25T11:54:45.411Z,23.40
2018-04-25T11:57:13.529Z,23.50
2018-04-25T11:59:42.584Z,23.30
2018-04-25T12:02:11.511Z,23.40
2018-04-25T12:04:40.390Z,23.60
2018-04-25T12:07:09.307Z,23.50
2018-04-25T12:09:38.289Z,23.60
2018-04-25T12:12:07.175Z,23.60
2018-04-25T12:14:36.075Z,23.50
2018-04-25T12:17:04.246Z,23.50
2018-04-25T12:19:33.133Z,23.70
2018-04-25T12:22:02.007Z,23.90
2018-04-25T12:24:30.940Z,23.90
2018-04-25T12:26:59.070Z,23.90
2018-04-25T12:29:27.973Z,24.00
2018-04-25T12:31:56.904Z,24.00
2018-04-25T12:34:25.043Z,23.90
2018-04-25T12:36:53.946Z,23.90
2018-04-25T12:39:22.071Z,23.90
2018-04-25T12:41:50.223Z,24.00
2018-04-25T12:44:18.347Z,24.00
2018-04-25T12:46:46.517Z,24.10
2018-04-25T12:49:15.601Z,24.20
2018-04-25T12:51:44.499Z,24.30
2018-04-25T12:54:13.387Z,24.30
2018-04-25T12:56:42.295Z,24.20
2018-04-25T12:59:10.430Z,24.20
2018-04-25T13:01:38.696Z,24.20
2018-04-25T13:04:06.736Z,24.10
2018-04-25T13:06:34.864Z,24.00
2018-04-25T13:09:03.885Z,24.50
2018-04-25T13:11:32.758Z,24.70
2018-04-25T13:14:00.958Z,24.60
2018-04-25T13:16:29.111Z,24.50
2018-04-25T13:18:57.207Z,24.40
2018-04-25T13:21:25.438Z,24.50
2018-04-25T13:23:53.457Z,24.20
2018-04-25T13:26:21.624Z,23.90
2018-04-25T13:28:49.862Z,23.60
2018-04-25T13:31:18.031Z,23.50
2018-04-25T13:33:46.160Z,23.50
2018-04-25T13:36:14.321Z,23.50
2018-04-25T13:38:42.447Z,23.40
2018-04-25T13:41:10.643Z,23.50
2018-04-25T13:43:38.794Z,23.80
2018-04-25T13:46:07.685Z,24.30
2018-04-25T13:48:35.804Z,24.30
2018-04-25T13:51:04.568Z,24.40
2018-04-25T13:53:32.708Z,24.60
2018-04-25T13:56:00.827Z,24.70
2018-04-25T13:58:29.031Z,24.70
2018-04-25T14:00:57.941Z,24.50
2018-04-25T14:03:26.124Z,24.40
2018-04-25T14:05:54.248Z,24.60
2018-04-25T14:08:22.399Z,24.80
2018-04-25T14:10:50.518Z,24.90
2018-04-25T14:13:19.539Z,26.20
2018-04-25T14:15:48.390Z,26.70
2018-04-25T14:18:17.317Z,26.70
2018-04-25T14:20:45.487Z,26.60
2018-04-25T14:23:13.604Z,27.40
2018-04-25T14:25:41.753Z,28.00
2018-04-25T14:28:09.918Z,28.80
2018-04-25T14:30:38.036Z,29.50
2018-04-25T14:33:06.956Z,30.70
2018-04-25T14:35:35.073Z,30.60
2018-04-25T14:38:03.216Z,30.80
2018-04-25T14:40:31.337Z,31.10
2018-04-25T14:42:59.477Z,30.90
2018-04-25T14:45:27.615Z,30.10
2018-04-25T14:47:55.742Z,29.30
2018-04-25T14:50:23.895Z,29.60
2018-04-25T14:52:52.030Z,30.00
2018-04-25T14:55:20.908Z,30.70
2018-04-25T14:57:49.044Z,30.60
2018-04-25T15:00:17.175Z,29.90
2018-04-25T15:02:45.325Z,29.50
2018-04-25T15:05:14.581Z,28.60
2018-04-25T15:07:42.694Z,28.50
2018-04-25T15:10:10.839Z,29.90
2018-04-25T15:12:38.987Z,29.50
2018-04-25T15:15:07.214Z,29.20
2018-04-25T15:17:36.195Z,29.10
2018-04-25T15:20:05.178Z,30.80
2018-04-25T15:22:33.233Z,30.70
2018-04-25T15:25:01.564Z,31.70
2018-04-25T15:27:29.705Z,32.90
2018-04-25T15:29:58.602Z,33.40
2018-04-25T15:32:27.509Z,34.40
2018-04-25T15:34:55.631Z,34.30
2018-04-25T15:37:23.834Z,34.60
2018-04-25T15:39:51.987Z,34.20
2018-04-25T15:42:20.099Z,31.90
2018-04-25T15:44:48.247Z,31.20
2018-04-25T15:47:17.118Z,30.30
2018-04-25T15:49:46.031Z,31.40
2018-04-25T15:52:14.162Z,31.30
2018-04-25T15:54:42.287Z,31.20
2018-04-25T15:57:10.470Z,31.90
2018-04-25T15:59:38.601Z,32.40
2018-04-25T16:02:06.781Z,32.90
2018-04-25T16:04:34.925Z,33.30
2018-04-25T16:07:03.174Z,31.70
2018-04-25T16:09:31.325Z,30.40
2018-04-25T16:11:59.462Z,31.20
2018-04-25T16:14:27.647Z,30.30
2018-04-25T16:16:56.536Z,27.90
2018-04-25T16:19:25.486Z,26.70
2018-04-25T16:21:53.734Z,26.60
2018-04-25T16:24:21.879Z,25.90
2018-04-25T16:26:51.308Z,24.70
2018-04-25T16:29:19.462Z,24.70
2018-04-25T16:31:48.368Z,23.90
2018-04-25T16:34:16.519Z,23.90
2018-04-25T16:36:44.680Z,23.60
2018-04-25T16:39:13.595Z,23.10
2018-04-25T16:41:41.722Z,23.00
2018-04-25T16:44:09.885Z,23.10
2018-04-25T16:46:37.991Z,23.00
2018-04-25T16:49:06.158Z,23.00
2018-04-25T16:51:35.099Z,22.70
2018-04-25T16:54:03.238Z,22.60
2018-04-25T16:56:31.374Z,22.40
2018-04-25T16:59:00.422Z,22.20
2018-04-25T17:01:28.564Z,22.20
2018-04-25T17:03:56.721Z,22.20
2018-04-25T17:06:25.647Z,22.20
2018-04-25T17:08:53.790Z,22.20
2018-04-25T17:11:22.714Z,22.20
2018-04-25T17:13:50.881Z,22.20
2018-04-25T17:16:19.086Z,22.10
2018-04-25T17:18:47.314Z,22.00
2018-04-25T17:21:15.457Z,21.90
2018-04-25T17:23:44.382Z,21.60
2018-04-25T17:26:12.539Z,21.50
2018-04-25T17:28:41.523Z,21.10
2018-04-25T17:31:09.584Z,21.00
2018-04-25T17:33:37.785Z,21.00
2018-04-25T17:36:05.944Z,20.90
2018-04-25T17:38:34.826Z,20.80
2018-04-25T17:41:03.825Z,20.60
2018-04-25T17:43:31.995Z,20.70
2018-04-25T17:46:00.154Z,20.60
2018-04-25T17:48:29.101Z,20.40
2018-04-25T17:50:57.216Z,20.30
2018-04-25T17:53:26.135Z,20.20
2018-04-25T17:55:54.324Z,20.10
2018-04-25T17:58:22.551Z,20.00
2018-04-25T18:00:51.460Z,19.80
2018-04-25T18:03:20.576Z,19.70
2018-04-25T18:05:48.777Z,19.70
2018-04-25T18:08:17.027Z,19.50
2018-04-25T18:10:45.147Z,19.40
2018-04-25T18:13:14.183Z,19.30
2018-04-25T18:15:42.339Z,19.20
2018-04-25T18:18:10.528Z,19.20
2018-04-25T18:20:38.674Z,19.20
2018-04-25T18:23:07.574Z,19.10
2018-04-25T18:25:35.712Z,19.00
2018-04-25T18:28:04.613Z,19.00
2018-04-25T18:30:33.578Z,19.00
2018-04-25T18:33:01.709Z,18.90
2018-04-25T18:35:29.983Z,18.90
2018-04-25T18:37:58.976Z,18.80
2018-04-25T18:40:27.125Z,18.70
2018-04-25T18:42:55.283Z,18.70
2018-04-25T18:45:24.309Z,18.60
2018-04-25T18:47:52.436Z,18.50
2018-04-25T18:50:21.347Z,18.50
2018-04-25T18:52:50.236Z,18.50
2018-04-25T18:55:19.170Z,18.50
2018-04-25T18:57:47.343Z,18.50
2018-04-25T19:00:15.528Z,18.40
2018-04-25T19:02:43.770Z,18.40
2018-04-25T19:05:11.923Z,18.40
2018-04-25T19:07:40.844Z,18.40
2018-04-25T19:10:08.985Z,18.40
2018-04-25T19:12:37.174Z,18.50
2018-04-25T19:15:05.316Z,18.50
2018-04-25T19:17:34.211Z,18.60
2018-04-25T19:20:02.374Z,18.50
2018-04-25T19:22:30.530Z,18.60
2018-04-25T19:24:58.753Z,18.60
2018-04-25T19:27:26.931Z,18.50
2018-04-25T19:29:55.098Z,18.50
2018-04-25T19:32:23.159Z,18.30
2018-04-25T19:34:51.323Z,18.30
2018-04-25T19:37:19.518Z,18.20
2018-04-25T19:39:47.716Z,18.20
2018-04-25T19:42:15.878Z,18.10
2018-04-25T19:44:44.046Z,18.10
2018-04-25T19:47:12.495Z,18.10
2018-04-25T19:49:40.637Z,18.20
2018-04-25T19:52:08.792Z,18.20
2018-04-25T19:54:36.969Z,18.20
2018-04-25T19:57:05.120Z,18.10
2018-04-25T19:59:33.273Z,18.10
2018-04-25T20:02:01.399Z,18.10
2018-04-25T20:04:30.301Z,18.00
2018-04-25T20:06:59.310Z,18.00
2018-04-25T20:09:27.440Z,18.00
2018-04-25T20:11:56.094Z,18.00
2018-04-25T20:14:24.256Z,17.90
2018-04-25T20:16:52.388Z,17.80
2018-04-25T20:19:21.410Z,17.80
2018-04-25T20:21:50.305Z,17.70
2018-04-25T20:24:18.442Z,17.70
2018-04-25T20:26:47.383Z,17.60
2018-04-25T20:29:15.515Z,17.60
2018-04-25T20:31:44.434Z,17.60
2018-04-25T20:34:12.587Z,17.60
2018-04-25T20:36:40.730Z,17.60
2018-04-25T20:39:09.643Z,17.70
2018-04-25T20:41:38.565Z,17.70
2018-04-25T20:44:06.683Z,17.70
2018-04-25T20:46:35.598Z,17.80
2018-04-25T20:49:03.738Z,17.80
2018-04-25T20:51:31.881Z,17.70
2018-04-25T20:54:00.131Z,17.70
2018-04-25T20:56:28.281Z,17.70
2018-04-25T20:58:56.419Z,17.70
2018-04-25T21:01:24.611Z,17.70
2018-04-25T21:03:53.553Z,17.70
2018-04-25T21:06:21.679Z,17.70
2018-04-25T21:08:49.809Z,17.50
2018-04-25T21:11:18.430Z,17.30
2018-04-25T21:13:46.569Z,17.20
2018-04-25T21:16:14.929Z,17.10
2018-04-25T21:18:43.157Z,17.10
2018-04-25T21:21:12.052Z,17.00
2018-04-25T21:23:40.194Z,17.00
2018-04-25T21:26:09.128Z,17.00
2018-04-25T21:28:37.278Z,16.90
2018-04-25T21:31:06.277Z,17.00
2018-04-25T21:33:34.427Z,16.90
2018-04-25T21:36:03.337Z,17.00
2018-04-25T21:38:31.470Z,16.90
2018-04-25T21:40:59.656Z,16.90
2018-04-25T21:43:28.647Z,16.90
2018-04-25T21:45:57.669Z,16.90
2018-04-25T21:48:25.824Z,16.80
2018-04-25T21:50:54.749Z,16.90
2018-04-25T21:53:22.858Z,16.80
2018-04-25T21:55:51.000Z,16.80
2018-04-25T21:58:19.179Z,16.70
2018-04-25T22:00:47.315Z,16.60
2018-04-25T22:03:15.444Z,16.60
2018-04-25T22:05:43.607Z,16.60
2018-04-25T22:08:11.722Z,16.50
2018-04-25T22:10:39.839Z,16.50
2018-04-25T22:13:07.980Z,16.50
2018-04-25T22:15:36.124Z,16.30
2018-04-25T22:18:05.036Z,16.10
2018-04-25T22:20:33.196Z,16.10
2018-04-25T22:23:02.084Z,15.80
2018-04-25T22:25:30.207Z,15.80
2018-04-25T22:27:58.345Z,15.90
2018-04-25T22:30:26.478Z,15.90
2018-04-25T22:32:54.662Z,15.90
2018-04-25T22:35:23.552Z,15.90
2018-04-25T22:37:52.455Z,15.80
2018-04-25T22:40:20.603Z,15.80
2018-04-25T22:42:48.727Z,15.70
2018-04-25T22:45:16.969Z,15.60
2018-04-25T22:47:45.119Z,15.40
2018-04-25T22:50:14.116Z,15.20
2018-04-25T22:52:43.139Z,15.20
2018-04-25T22:55:11.244Z,15.20
2018-04-25T22:57:39.376Z,15.20
2018-04-25T23:00:07.524Z,15.20
2018-04-25T23:02:36.417Z,15.40
2018-04-25T23:05:05.330Z,15.40
2018-04-25T23:07:33.475Z,15.30
2018-04-25T23:10:03.905Z,15.30
2018-04-25T23:12:32.806Z,15.20
2018-04-25T23:15:02.493Z,15.20
2018-04-25T23:17:31.480Z,15.30
2018-04-25T23:20:00.370Z,15.20
2018-04-25T23:22:29.336Z,15.20
2018-04-25T23:24:57.497Z,15.20
2018-04-25T23:27:25.606Z,15.30
2018-04-25T23:29:54.598Z,15.40
2018-04-25T23:32:23.587Z,15.40
2018-04-25T23:34:52.585Z,15.30
2018-04-25T23:37:21.478Z,15.20
2018-04-25T23:39:50.374Z,15.10
2018-04-25T23:42:18.533Z,15.10
2018-04-25T23:44:46.720Z,15.00
2018-04-25T23:47:15.633Z,15.00
2018-04-25T23:49:43.728Z,14.90
2018-04-25T23:52:11.868Z,14.90
2018-04-25T23:54:39.972Z,14.80
2018-04-25T23:57:08.184Z,14.70
2018-04-25T23:59:37.081Z,14.70
